MYGF METAR and TAF weather

Enter ICAO airport designator
Station Type Date Time Source
MYGF METAR 2019/10/13 23:00 UTC NOAA

MYGF 132300Z 13007KT 9999 FEW025 BKN040 27/22 A3002


Station Type Date Time Source
MYGF Decoded METAR 2019/10/13 23:00 UTC NOAA

Freeport, Grand Bahama, Bahamas, The (MYGF) 26-33N 078-42W 11M
Oct 13, 2019 - 07:00 PM EDT / 2019.10.13 2300 UTC
Wind: from the SE (130 degrees) at 8 MPH (7 KT):0
Visibility: greater than 7 mile(s):0
Sky conditions: mostly cloudy
Temperature: 80 F (27 C)
Dew Point: 71 F (22 C)
Relative Humidity: 74%
Pressure (altimeter): 30.02 in. Hg (1016 hPa)
ob: MYGF 132300Z 13007KT 9999 FEW025 BKN040 27/22 A3002
cycle: 23

Station Type Date Time Source
MYGF TAF 2019/10/14 06:53 UTC NOAA

MYGF 140430Z 1406/1506 10010KT 9999 FEW020

Example: see airport list